createdAt,value
2022-10-01T00:01:37.543Z,99.79
2022-10-01T00:04:08.035Z,99.94
2022-10-01T00:06:36.383Z,99.87
2022-10-01T00:09:04.864Z,99.89
2022-10-01T00:11:34.881Z,99.95
2022-10-01T00:14:05.031Z,99.93
2022-10-01T00:16:34.506Z,99.78
2022-10-01T00:19:02.999Z,99.84
2022-10-01T00:21:37.550Z,99.87
2022-10-01T00:24:12.835Z,99.69
2022-10-01T00:26:43.018Z,99.78
2022-10-01T00:29:20.320Z,99.94
2022-10-01T00:31:53.706Z,99.38
2022-10-01T00:34:22.704Z,99.33
2022-10-01T00:36:53.868Z,99.14
2022-10-01T00:39:23.765Z,99.28
2022-10-01T00:41:52.436Z,99.52
2022-10-01T00:44:34.051Z,99.57
2022-10-01T00:47:10.921Z,99.74
2022-10-01T00:49:43.295Z,99.56
2022-10-01T00:52:17.245Z,99.38
2022-10-01T00:54:51.164Z,99.49
2022-10-01T00:57:25.973Z,99.49
2022-10-01T01:00:00.520Z,99.43
2022-10-01T01:02:29.083Z,99.46
2022-10-01T01:05:01.342Z,99.54
2022-10-01T01:07:30.365Z,99.40
2022-10-01T01:09:59.583Z,99.53
2022-10-01T01:12:55.302Z,99.40
2022-10-01T01:15:33.181Z,99.05
2022-10-01T01:18:15.802Z,99.15
2022-10-01T01:20:51.921Z,98.93
2022-10-01T01:23:33.698Z,98.83
2022-10-01T01:26:15.199Z,99.00
2022-10-01T01:28:50.720Z,99.29
2022-10-01T01:31:23.466Z,99.39
2022-10-01T01:33:55.658Z,99.43
2022-10-01T01:36:28.226Z,99.29
2022-10-01T01:39:01.892Z,98.67
2022-10-01T01:41:35.338Z,98.56
2022-10-01T01:44:10.313Z,98.52
2022-10-01T01:46:42.929Z,98.71
2022-10-01T01:49:11.762Z,98.64
2022-10-01T01:51:45.494Z,98.66
2022-10-01T01:54:16.863Z,98.88
2022-10-01T01:56:47.079Z,98.99
2022-10-01T01:59:20.000Z,99.02
2022-10-01T02:01:49.601Z,99.09
2022-10-01T02:04:25.772Z,99.00
2022-10-01T02:07:21.023Z,99.01
2022-10-01T02:09:54.041Z,99.32
2022-10-01T02:12:34.458Z,99.73
2022-10-01T02:15:10.973Z,99.51
2022-10-01T02:17:50.704Z,99.61
2022-10-01T02:20:25.932Z,99.52
2022-10-01T02:23:00.424Z,99.80
2022-10-01T02:25:34.999Z,99.82
2022-10-01T02:28:09.623Z,99.80
2022-10-01T02:30:45.616Z,99.90
2022-10-01T02:33:18.082Z,99.44
2022-10-01T02:35:48.196Z,99.43
2022-10-01T02:38:17.749Z,99.45
2022-10-01T02:40:49.801Z,99.18
2022-10-01T02:43:21.740Z,99.31
2022-10-01T02:45:53.606Z,99.18
2022-10-01T02:48:22.451Z,99.09
2022-10-01T02:50:54.872Z,99.10
2022-10-01T02:53:27.810Z,99.38
2022-10-01T02:55:58.239Z,99.15
2022-10-01T02:58:25.835Z,99.15
2022-10-01T03:00:55.873Z,99.32
2022-10-01T03:03:26.169Z,99.44
2022-10-01T03:05:56.108Z,99.45
2022-10-01T03:08:24.224Z,99.38
2022-10-01T03:10:53.521Z,99.46
2022-10-01T03:13:27.472Z,99.49
2022-10-01T03:15:58.934Z,99.76
2022-10-01T03:18:27.954Z,99.90
2022-10-01T03:21:00.564Z,99.92
2022-10-01T03:23:30.766Z,99.78
2022-10-01T03:25:58.883Z,99.66
2022-10-01T03:28:27.567Z,99.87
2022-10-01T03:31:08.070Z,99.99
2022-10-01T03:33:36.580Z,99.99
2022-10-01T03:36:06.509Z,99.99
2022-10-01T03:38:35.111Z,99.99
2022-10-01T03:41:06.515Z,99.99
2022-10-01T03:43:37.852Z,99.99
2022-10-01T03:46:11.359Z,99.99
2022-10-01T03:48:41.050Z,99.99
2022-10-01T03:51:10.947Z,99.99
2022-10-01T03:53:41.970Z,99.75
2022-10-01T03:56:13.071Z,99.75
2022-10-01T03:58:43.076Z,99.87
2022-10-01T04:01:14.765Z,99.85
2022-10-01T04:03:43.825Z,99.89
2022-10-01T04:06:13.143Z,99.85
2022-10-01T04:08:44.076Z,99.96
2022-10-01T04:11:12.521Z,99.99
2022-10-01T04:13:47.216Z,99.99
2022-10-01T04:16:18.733Z,99.99
2022-10-01T04:18:47.074Z,99.99
2022-10-01T04:21:16.753Z,99.99
2022-10-01T04:23:48.642Z,99.99
2022-10-01T04:26:18.954Z,99.99
2022-10-01T04:28:47.788Z,99.99
2022-10-01T04:31:26.363Z,99.99
2022-10-01T04:33:56.585Z,99.99
2022-10-01T04:36:26.138Z,99.99
2022-10-01T04:39:02.197Z,99.99
2022-10-01T04:41:34.154Z,99.99
2022-10-01T04:44:05.116Z,99.99
2022-10-01T04:46:35.047Z,99.99
2022-10-01T04:49:03.554Z,99.99
2022-10-01T04:51:32.101Z,99.99
2022-10-01T04:54:01.091Z,99.99
2022-10-01T04:56:30.392Z,99.99
2022-10-01T04:58:58.990Z,99.99
2022-10-01T05:01:28.882Z,99.99
2022-10-01T05:04:05.904Z,99.96
2022-10-01T05:06:35.122Z,99.98
2022-10-01T05:09:05.059Z,99.98
2022-10-01T05:11:34.926Z,99.99
2022-10-01T05:14:04.185Z,99.95
2022-10-01T05:16:33.242Z,99.88
2022-10-01T05:19:05.916Z,99.88
2022-10-01T05:21:35.345Z,99.99
2022-10-01T05:24:03.669Z,99.99
2022-10-01T05:26:33.161Z,99.99
2022-10-01T05:29:03.476Z,99.98
2022-10-01T05:31:33.250Z,99.99
2022-10-01T05:34:02.620Z,99.99
2022-10-01T05:36:32.075Z,99.99
2022-10-01T05:39:03.774Z,99.99
2022-10-01T05:41:34.323Z,99.99
2022-10-01T05:44:04.072Z,99.99
2022-10-01T05:46:32.737Z,99.99
2022-10-01T05:49:07.144Z,99.99
2022-10-01T05:51:37.866Z,99.99
2022-10-01T05:54:06.609Z,99.99
2022-10-01T05:56:35.477Z,99.99
2022-10-01T05:59:07.170Z,99.99
2022-10-01T06:01:36.561Z,99.99
2022-10-01T06:04:10.613Z,99.99
2022-10-01T06:06:40.058Z,99.99
2022-10-01T06:09:10.361Z,99.99
2022-10-01T06:11:39.572Z,99.99
2022-10-01T06:14:08.221Z,99.99
2022-10-01T06:16:36.580Z,99.99
2022-10-01T06:19:05.196Z,99.99
2022-10-01T06:21:34.047Z,99.99
2022-10-01T06:24:04.042Z,99.99
2022-10-01T06:26:32.570Z,99.99
2022-10-01T06:29:02.360Z,99.99
2022-10-01T06:31:31.070Z,99.99
2022-10-01T06:34:00.845Z,99.99
2022-10-01T06:36:32.300Z,99.99
2022-10-01T06:39:03.327Z,99.99
2022-10-01T06:41:32.268Z,99.99
2022-10-01T06:44:02.136Z,99.85
2022-10-01T06:46:32.628Z,99.96
2022-10-01T06:49:01.323Z,99.99
2022-10-01T06:51:43.600Z,99.98
2022-10-01T06:54:14.601Z,99.87
2022-10-01T06:56:42.946Z,99.96
2022-10-01T06:59:11.400Z,99.99
2022-10-01T07:01:40.450Z,99.99
2022-10-01T07:04:08.561Z,99.99
2022-10-01T07:06:37.007Z,99.97
2022-10-01T07:09:05.761Z,99.90
2022-10-01T07:11:39.312Z,99.63
2022-10-01T07:14:09.655Z,99.48
2022-10-01T07:16:40.093Z,99.27
2022-10-01T07:19:08.669Z,99.23
2022-10-01T07:21:38.348Z,99.18
2022-10-01T07:24:06.838Z,99.24
2022-10-01T07:26:36.532Z,99.09
2022-10-01T07:29:06.208Z,99.29
2022-10-01T07:31:35.629Z,99.11
2022-10-01T07:34:05.355Z,99.27
2022-10-01T07:36:34.097Z,99.39
2022-10-01T07:39:02.369Z,99.50
2022-10-01T07:41:36.499Z,99.55
2022-10-01T07:44:06.779Z,99.25
2022-10-01T07:46:36.228Z,99.27
2022-10-01T07:49:04.652Z,99.34
2022-10-01T07:51:33.809Z,99.16
2022-10-01T07:54:06.486Z,98.99
2022-10-01T07:56:35.899Z,99.02
2022-10-01T07:59:08.179Z,98.95
2022-10-01T08:01:37.874Z,98.43
2022-10-01T08:04:21.631Z,98.01
2022-10-01T08:06:51.941Z,98.05
2022-10-01T08:09:21.565Z,98.46
2022-10-01T08:11:49.960Z,98.13
2022-10-01T08:14:21.868Z,98.23
2022-10-01T08:16:52.166Z,98.09
2022-10-01T08:19:21.159Z,97.56
2022-10-01T08:21:51.766Z,97.72
2022-10-01T08:24:22.507Z,97.61
2022-10-01T08:26:56.301Z,97.28
2022-10-01T08:29:29.480Z,96.60
2022-10-01T08:31:58.628Z,96.84
2022-10-01T08:34:27.974Z,97.02
2022-10-01T08:36:57.424Z,97.08
2022-10-01T08:39:25.969Z,96.50
2022-10-01T08:42:04.224Z,97.11
2022-10-01T08:44:41.149Z,97.02
2022-10-01T08:47:19.189Z,97.08
2022-10-01T08:49:52.808Z,97.71
2022-10-01T08:52:24.836Z,97.36
2022-10-01T08:54:58.601Z,97.27
2022-10-01T08:57:31.129Z,97.32
2022-10-01T09:00:03.386Z,97.21
2022-10-01T09:02:34.325Z,97.50
2022-10-01T09:05:06.007Z,97.00
2022-10-01T09:07:54.715Z,97.36
2022-10-01T09:10:33.536Z,97.53
2022-10-01T09:13:31.163Z,97.75
2022-10-01T09:16:11.603Z,97.16
2022-10-01T09:18:51.042Z,96.78
2022-10-01T09:21:21.877Z,96.85
2022-10-01T09:24:00.513Z,97.00
2022-10-01T09:26:34.020Z,97.20
2022-10-01T09:29:06.582Z,97.16
2022-10-01T09:31:42.397Z,95.95
2022-10-01T09:34:15.512Z,96.46
2022-10-01T09:36:54.235Z,96.12
2022-10-01T09:39:30.964Z,95.66
2022-10-01T09:42:02.018Z,95.42
2022-10-01T09:44:34.986Z,95.92
2022-10-01T09:47:14.448Z,95.27
2022-10-01T09:49:44.964Z,94.24
2022-10-01T09:52:19.035Z,95.18
2022-10-01T09:54:52.185Z,94.55
2022-10-01T09:57:27.068Z,94.07
2022-10-01T10:00:05.360Z,94.36
2022-10-01T10:02:47.587Z,93.81
2022-10-01T10:05:19.586Z,93.33
2022-10-01T10:07:52.233Z,93.16
2022-10-01T10:10:26.433Z,93.07
2022-10-01T10:13:03.374Z,93.04
2022-10-01T10:15:34.861Z,92.30
2022-10-01T10:18:14.205Z,92.81
2022-10-01T10:20:45.964Z,91.52
2022-10-01T10:23:20.076Z,93.19
2022-10-01T10:25:56.693Z,93.17
2022-10-01T10:28:26.003Z,94.52
2022-10-01T10:30:58.382Z,91.72
2022-10-01T10:33:30.216Z,91.23
2022-10-01T10:36:00.436Z,90.82
2022-10-01T10:38:36.763Z,91.02
2022-10-01T10:41:09.785Z,92.44
2022-10-01T10:43:40.879Z,89.95
2022-10-01T10:46:11.140Z,90.33
2022-10-01T10:48:46.099Z,90.60
2022-10-01T10:51:20.849Z,91.66
2022-10-01T10:53:51.011Z,90.01
2022-10-01T10:56:23.048Z,88.45
2022-10-01T10:58:54.141Z,89.51
2022-10-01T11:01:30.116Z,89.30
2022-10-01T11:04:04.210Z,88.73
2022-10-01T11:06:38.336Z,89.10
2022-10-01T11:09:11.833Z,88.37
2022-10-01T11:11:49.078Z,87.70
2022-10-01T11:14:32.689Z,86.48
2022-10-01T11:17:28.488Z,85.33
2022-10-01T11:20:20.607Z,87.13
2022-10-01T11:23:03.103Z,83.94
2022-10-01T11:25:44.994Z,85.35
2022-10-01T11:28:22.174Z,83.42
2022-10-01T11:31:09.592Z,83.11
2022-10-01T11:33:46.618Z,82.71
2022-10-01T11:36:28.216Z,81.74
2022-10-01T11:39:01.367Z,82.35
2022-10-01T11:41:36.998Z,84.41
2022-10-01T11:44:09.161Z,84.62
2022-10-01T11:46:58.002Z,84.79
2022-10-01T11:49:42.656Z,84.36
2022-10-01T11:52:24.158Z,85.55
2022-10-01T11:55:19.973Z,85.90
2022-10-01T11:58:12.452Z,83.71
2022-10-01T12:00:42.688Z,85.84
2022-10-01T12:03:18.651Z,82.39
2022-10-01T12:05:47.951Z,81.85
2022-10-01T12:08:27.488Z,83.60
2022-10-01T12:11:02.762Z,81.61
2022-10-01T12:13:34.368Z,82.31
2022-10-01T12:16:12.611Z,84.94
2022-10-01T12:18:53.641Z,83.40
2022-10-01T12:21:31.230Z,85.67
2022-10-01T12:24:10.205Z,85.93
2022-10-01T12:26:47.982Z,86.02
2022-10-01T12:29:22.130Z,86.53
2022-10-01T12:32:03.044Z,85.03
2022-10-01T12:34:54.238Z,83.39
2022-10-01T12:37:36.185Z,85.94
2022-10-01T12:40:24.090Z,86.03
2022-10-01T12:43:08.283Z,84.13
2022-10-01T12:45:51.995Z,83.71
2022-10-01T12:48:36.530Z,84.24
2022-10-01T12:51:25.599Z,85.92
2022-10-01T12:54:05.235Z,86.93
2022-10-01T12:56:41.159Z,87.87
2022-10-01T12:59:39.212Z,86.94
2022-10-01T13:02:39.636Z,87.39
2022-10-01T13:05:21.345Z,85.50
2022-10-01T13:08:01.181Z,85.32
2022-10-01T13:10:48.812Z,85.17
2022-10-01T13:13:26.361Z,84.10
2022-10-01T13:16:04.955Z,83.16
2022-10-01T13:18:41.124Z,83.63
2022-10-01T13:21:19.716Z,83.19
2022-10-01T13:23:52.206Z,83.80
2022-10-01T13:26:27.453Z,83.41
2022-10-01T13:29:16.111Z,83.76
2022-10-01T13:32:00.294Z,85.15
2022-10-01T13:34:40.809Z,83.90
2022-10-01T13:37:17.569Z,85.46
2022-10-01T13:39:49.798Z,84.63
2022-10-01T13:42:28.789Z,84.73
2022-10-01T13:45:01.612Z,84.28
2022-10-01T13:47:30.283Z,84.18
2022-10-01T13:50:06.514Z,85.43
2022-10-01T13:52:36.314Z,85.10
2022-10-01T13:55:08.601Z,84.32
2022-10-01T13:57:40.274Z,85.33
2022-10-01T14:00:28.792Z,84.18
2022-10-01T14:03:27.852Z,83.70
2022-10-01T14:05:59.935Z,83.83
2022-10-01T14:08:32.406Z,85.19
2022-10-01T14:11:24.923Z,85.73
2022-10-01T14:14:11.465Z,90.37
2022-10-01T14:16:44.614Z,93.11
2022-10-01T14:19:24.614Z,93.51
2022-10-01T14:22:06.897Z,94.78
2022-10-01T14:24:55.266Z,94.65
2022-10-01T14:27:39.304Z,94.88
2022-10-01T14:30:12.841Z,95.82
2022-10-01T14:33:00.798Z,95.98
2022-10-01T14:35:42.093Z,95.76
2022-10-01T14:38:15.438Z,95.90
2022-10-01T14:40:44.836Z,95.84
2022-10-01T14:43:19.640Z,94.70
2022-10-01T14:45:59.005Z,95.70
2022-10-01T14:48:31.342Z,95.53
2022-10-01T14:51:06.683Z,94.73
2022-10-01T14:53:38.530Z,94.48
2022-10-01T14:56:09.881Z,95.17
2022-10-01T14:58:45.348Z,95.42
2022-10-01T15:01:22.495Z,95.62
2022-10-01T15:03:58.230Z,94.65
2022-10-01T15:06:30.211Z,94.86
2022-10-01T15:09:11.883Z,95.25
2022-10-01T15:11:44.488Z,94.73
2022-10-01T15:14:17.852Z,94.93
2022-10-01T15:16:46.600Z,95.08
2022-10-01T15:19:18.795Z,94.73
2022-10-01T15:21:50.269Z,94.69
2022-10-01T15:24:26.347Z,94.83
2022-10-01T15:27:00.601Z,93.85
2022-10-01T15:29:29.406Z,94.70
2022-10-01T15:31:59.063Z,94.70
2022-10-01T15:34:29.707Z,95.48
2022-10-01T15:36:59.968Z,94.63
2022-10-01T15:39:33.798Z,94.91
2022-10-01T15:42:09.114Z,95.32
2022-10-01T15:44:48.317Z,95.53
2022-10-01T15:47:32.782Z,95.09
2022-10-01T15:50:22.136Z,94.95
2022-10-01T15:52:55.956Z,95.87
2022-10-01T15:55:33.713Z,95.97
2022-10-01T15:58:18.033Z,96.25
2022-10-01T16:01:02.692Z,95.41
2022-10-01T16:03:35.581Z,95.64
2022-10-01T16:06:07.259Z,94.93
2022-10-01T16:08:42.144Z,95.66
2022-10-01T16:11:21.686Z,95.35
2022-10-01T16:13:51.071Z,94.73
2022-10-01T16:16:27.311Z,94.50
2022-10-01T16:19:02.058Z,95.10
2022-10-01T16:21:42.843Z,95.02
2022-10-01T16:24:28.553Z,94.70
2022-10-01T16:27:02.694Z,94.23
2022-10-01T16:29:32.739Z,94.29
2022-10-01T16:32:02.886Z,94.30
2022-10-01T16:34:31.757Z,94.48
2022-10-01T16:37:04.252Z,94.68
2022-10-01T16:39:33.245Z,95.00
2022-10-01T16:42:22.796Z,96.25
2022-10-01T16:44:54.267Z,95.81
2022-10-01T16:47:22.990Z,94.33
2022-10-01T16:49:53.332Z,93.69
2022-10-01T16:52:25.569Z,92.90
2022-10-01T16:54:54.176Z,92.87
2022-10-01T16:57:22.565Z,92.83
2022-10-01T16:59:50.825Z,93.13
2022-10-01T17:02:19.863Z,92.46
2022-10-01T17:04:48.288Z,92.38
2022-10-01T17:07:17.478Z,92.72
2022-10-01T17:09:47.307Z,92.77
2022-10-01T17:12:16.701Z,92.96
2022-10-01T17:14:49.257Z,93.26
2022-10-01T17:17:20.691Z,92.88
2022-10-01T17:19:52.787Z,93.19
2022-10-01T17:22:21.042Z,93.40
2022-10-01T17:24:51.011Z,92.98
2022-10-01T17:27:22.329Z,92.63
2022-10-01T17:29:50.674Z,92.43
2022-10-01T17:32:21.812Z,90.62
2022-10-01T17:34:50.368Z,89.58
2022-10-01T17:37:18.958Z,89.76
2022-10-01T17:39:47.730Z,91.51
2022-10-01T17:42:18.258Z,91.53
2022-10-01T17:44:48.035Z,90.74
2022-10-01T17:47:16.460Z,91.54
2022-10-01T17:49:45.012Z,90.26
2022-10-01T17:52:14.849Z,90.58
2022-10-01T17:54:43.478Z,90.60
2022-10-01T17:57:12.085Z,90.27
2022-10-01T17:59:42.435Z,90.88
2022-10-01T18:02:39.850Z,89.66
2022-10-01T18:05:04.131Z,88.98
2022-10-01T18:07:32.895Z,88.53
2022-10-01T18:10:01.282Z,89.09
2022-10-01T18:12:29.874Z,87.94
2022-10-01T18:15:00.011Z,88.69
2022-10-01T18:17:30.168Z,88.84
2022-10-01T18:19:58.546Z,88.76
2022-10-01T18:22:30.515Z,89.14
2022-10-01T18:25:01.351Z,88.79
2022-10-01T18:27:30.748Z,88.73
2022-10-01T18:30:00.691Z,88.68
2022-10-01T18:32:34.427Z,88.70
2022-10-01T18:35:04.107Z,87.31
2022-10-01T18:37:40.084Z,86.73
2022-10-01T18:40:13.718Z,87.50
2022-10-01T18:42:48.139Z,85.54
2022-10-01T18:45:25.743Z,86.53
2022-10-01T18:48:11.193Z,86.69
2022-10-01T18:50:48.120Z,86.32
2022-10-01T18:53:40.906Z,86.43
2022-10-01T18:56:24.410Z,86.43
2022-10-01T18:59:15.084Z,86.47
2022-10-01T19:01:57.717Z,86.34
2022-10-01T19:05:06.004Z,86.31
2022-10-01T19:07:47.803Z,87.23
2022-10-01T19:10:27.048Z,87.17
2022-10-01T19:13:06.580Z,86.38
2022-10-01T19:15:45.991Z,87.13
2022-10-01T19:18:35.195Z,87.25
2022-10-01T19:21:15.576Z,88.18
2022-10-01T19:24:13.419Z,89.40
2022-10-01T19:26:48.914Z,89.64
2022-10-01T19:29:29.421Z,90.82
2022-10-01T19:32:01.626Z,91.44
2022-10-01T19:34:39.232Z,90.68
2022-10-01T19:37:14.152Z,91.62
2022-10-01T19:39:45.047Z,91.27
2022-10-01T19:42:20.474Z,91.00
2022-10-01T19:44:57.921Z,91.30
2022-10-01T19:47:35.994Z,91.31
2022-10-01T19:50:18.844Z,92.05
2022-10-01T19:52:51.396Z,92.04
2022-10-01T19:55:22.509Z,91.40
2022-10-01T19:57:51.811Z,91.04
2022-10-01T20:00:28.863Z,90.03
2022-10-01T20:03:05.941Z,89.83
2022-10-01T20:05:43.996Z,89.21
2022-10-01T20:08:29.021Z,88.98
2022-10-01T20:11:05.091Z,87.36
2022-10-01T20:13:51.428Z,87.65
2022-10-01T20:16:29.313Z,87.87
2022-10-01T20:19:05.710Z,87.69
2022-10-01T20:21:47.361Z,88.20
2022-10-01T20:24:40.163Z,88.11
2022-10-01T20:27:23.481Z,88.42
2022-10-01T20:30:01.353Z,87.92
2022-10-01T20:32:38.180Z,88.19
2022-10-01T20:35:17.308Z,88.54
2022-10-01T20:38:08.075Z,87.84
2022-10-01T20:40:41.458Z,87.60
2022-10-01T20:43:17.493Z,87.78
2022-10-01T20:45:52.546Z,87.90
2022-10-01T20:48:25.562Z,88.16
2022-10-01T20:51:05.529Z,88.08
2022-10-01T20:53:45.044Z,88.41
2022-10-01T20:56:17.529Z,88.15
2022-10-01T20:58:55.202Z,87.64
2022-10-01T21:01:25.442Z,88.39
2022-10-01T21:04:02.595Z,86.13
2022-10-01T21:06:35.566Z,85.97
2022-10-01T21:09:12.687Z,83.99
2022-10-01T21:11:46.646Z,84.19
2022-10-01T21:14:21.307Z,84.50
2022-10-01T21:17:12.713Z,83.59
2022-10-01T21:20:04.698Z,84.22
2022-10-01T21:22:46.541Z,85.91
2022-10-01T21:25:27.605Z,84.57
2022-10-01T21:28:24.756Z,84.36
2022-10-01T21:31:06.402Z,84.56
2022-10-01T21:33:35.828Z,85.29
2022-10-01T21:36:12.437Z,84.50
2022-10-01T21:38:45.932Z,84.72
2022-10-01T21:41:48.752Z,85.24
2022-10-01T21:44:54.610Z,84.79
2022-10-01T21:47:37.603Z,83.81
2022-10-01T21:50:20.933Z,84.93
2022-10-01T21:53:24.290Z,83.92
2022-10-01T21:56:13.476Z,83.84
2022-10-01T21:59:00.891Z,84.36
2022-10-01T22:01:48.917Z,86.59
2022-10-01T22:04:20.788Z,86.19
2022-10-01T22:06:55.746Z,84.66
2022-10-01T22:09:34.235Z,84.91
2022-10-01T22:12:06.866Z,84.64
2022-10-01T22:14:35.673Z,85.71
2022-10-01T22:17:16.068Z,85.67
2022-10-01T22:19:52.506Z,84.04
2022-10-01T22:22:24.066Z,84.15
2022-10-01T22:24:55.580Z,85.27
2022-10-01T22:27:27.829Z,83.91
2022-10-01T22:30:00.177Z,83.42
2022-10-01T22:32:36.245Z,83.97
2022-10-01T22:35:09.859Z,83.61
2022-10-01T22:37:43.386Z,84.18
2022-10-01T22:40:18.656Z,84.22
2022-10-01T22:42:55.369Z,84.05
2022-10-01T22:45:36.526Z,84.44
2022-10-01T22:48:19.047Z,84.01
2022-10-01T22:51:00.226Z,83.45
2022-10-01T22:53:51.179Z,83.43
2022-10-01T22:56:27.970Z,83.05
2022-10-01T22:59:11.456Z,83.07
2022-10-01T23:01:48.294Z,83.39
2022-10-01T23:04:31.647Z,82.81
2022-10-01T23:07:10.331Z,83.06
2022-10-01T23:09:45.059Z,82.77
2022-10-01T23:12:24.660Z,83.63
2022-10-01T23:15:04.111Z,84.25
2022-10-01T23:17:40.739Z,84.82
2022-10-01T23:20:21.782Z,85.02
2022-10-01T23:23:06.426Z,85.53
2022-10-01T23:25:49.248Z,85.57
2022-10-01T23:28:31.360Z,85.22
2022-10-01T23:31:08.627Z,84.93
2022-10-01T23:33:50.765Z,84.89
2022-10-01T23:36:31.922Z,85.83
2022-10-01T23:39:23.777Z,84.05
2022-10-01T23:41:56.569Z,84.04
2022-10-01T23:44:34.666Z,84.66
2022-10-01T23:47:09.359Z,83.48
2022-10-01T23:49:45.853Z,83.51
2022-10-01T23:52:21.053Z,84.48
2022-10-01T23:54:57.564Z,84.47
2022-10-01T23:57:29.630Z,83.92
